Time;durP1;ratioP1;P1;durP2;ratioP2;P2;SDS_P1;SDS_P2;PMS_P1;PMS_P2;Temp;Humidity;BMP_temperature;BMP_pressure;BME280_temperature;BME280_humidity;BME280_pressure;Samples;Min_cycle;Max_cycle;Signal;HPM_P1;HPM_P2
2022/06/20 00:01:47;;;;;;;11.57;3.23;;;;;;;;;;5192531;28;20022;-77
2022/06/20 00:04:18;;;;;;;8.73;2.70;;;;;;;;;;5193017;28;20072;-76
2022/06/20 00:06:49;;;;;;;11.80;3.30;;;;;;;;;;5192839;28;20103;-76
2022/06/20 00:09:20;;;;;;;8.97;2.67;;;;;;;;;;5191573;28;20029;-77
2022/06/20 00:11:52;;;;;;;11.53;2.40;;;;;;;;;;5193250;28;20026;-77
2022/06/20 00:14:23;;;;;;;12.73;2.73;;;;;;;;;;5209900;28;20080;-76
2022/06/20 00:16:54;;;;;;;11.87;4.20;;;;;;;;;;5209161;28;20042;-76
2022/06/20 00:19:25;;;;;;;15.70;3.10;;;;;;;;;;5214985;28;20041;-77
2022/06/20 00:21:56;;;;;;;12.18;2.40;;;;;;;;;;5191870;28;20559;-76
2022/06/20 00:24:29;;;;;;;8.07;2.93;;;;;;;;;;5209154;28;20520;-76
2022/06/20 00:27:06;;;;;;;14.07;3.60;;;;;;;;;;5195380;28;20071;-76
2022/06/20 00:29:38;;;;;;;12.10;4.07;;;;;;;;;;5210220;28;20481;-76
2022/06/20 00:32:10;;;;;;;11.17;2.63;;;;;;;;;;5209125;28;20097;-77
2022/06/20 00:34:41;;;;;;;16.83;4.93;;;;;;;;;;5210158;28;20025;-77
2022/06/20 00:37:19;;;;;;;17.20;2.70;;;;;;;;;;5192435;28;20036;-76
2022/06/20 00:39:50;;;;;;;12.70;2.40;;;;;;;;;;5209042;28;20030;-76
2022/06/20 00:42:21;;;;;;;10.23;2.83;;;;;;;;;;5210025;28;20381;-76
2022/06/20 00:44:56;;;;;;;14.93;3.20;;;;;;;;;;5191929;28;20049;-77
2022/06/20 00:47:30;;;;;;;12.18;2.22;;;;;;;;;;5192205;28;20097;-76
2022/06/20 00:50:01;;;;;;;;;;;;;;;;;;5209264;28;20033;-76
2022/06/20 00:52:35;;;;;;;11.37;3.07;;;;;;;;;;5209371;28;19918;-76
2022/06/20 00:55:12;;;;;;;14.75;3.28;;;;;;;;;;5208689;28;20705;-77
2022/06/20 00:57:46;;;;;;;8.37;2.20;;;;;;;;;;5190943;28;20021;-77
2022/06/20 01:00:22;;;;;;;17.60;4.27;;;;;;;;;;5208658;28;20152;-77
2022/06/20 01:02:57;;;;;;;9.17;2.40;;;;;;;;;;5191470;28;20017;-77
2022/06/20 01:05:37;;;;;;;13.73;2.63;;;;;;;;;;5191616;28;20501;-76
2022/06/20 01:08:11;;;;;;;9.37;2.53;;;;;;;;;;5224508;22;20614;-76
2022/06/20 01:10:44;;;;;;;10.98;3.90;;;;;;;;;;5210197;28;20030;-76
2022/06/20 01:13:18;;;;;;;14.70;4.18;;;;;;;;;;5218255;28;20411;-77
2022/06/20 01:15:51;;;;;;;12.38;2.88;;;;;;;;;;5230210;28;20025;-76
2022/06/20 01:18:24;;;;;;;11.70;3.00;;;;;;;;;;5229522;28;20029;-77
2022/06/20 01:20:57;;;;;;;13.32;2.80;;;;;;;;;;5229436;28;20029;-76
2022/06/20 01:23:31;;;;;;;13.60;3.77;;;;;;;;;;5227759;28;20017;-76
2022/06/20 01:26:02;;;;;;;;;;;;;;;;;;5230334;28;20032;-76
2022/06/20 01:28:35;;;;;;;14.17;3.13;;;;;;;;;;5227528;28;19913;-77
2022/06/20 01:31:07;;;;;;;10.20;2.63;;;;;;;;;;5228319;28;21035;-76
2022/06/20 01:33:39;;;;;;;8.40;2.33;;;;;;;;;;5228610;28;20096;-76
2022/06/20 01:39:02;;;;;;;12.63;3.20;;;;;;;;;;5228683;28;20026;-76
2022/06/20 01:44:23;;;;;;;12.33;3.60;;;;;;;;;;5229780;28;20112;-76
2022/06/20 01:46:54;;;;;;;11.20;2.70;;;;;;;;;;5227426;28;20116;-76
2022/06/20 01:49:30;;;;;;;16.47;2.60;;;;;;;;;;5229243;28;20069;-76
2022/06/20 01:52:04;;;;;;;14.20;2.93;;;;;;;;;;5229317;28;20101;-77
2022/06/20 01:54:40;;;;;;;10.35;3.63;;;;;;;;;;5208482;28;20026;-76
2022/06/20 01:57:12;;;;;;;8.27;2.60;;;;;;;;;;5210244;28;20025;-76
2022/06/20 02:00:04;;;;;;;15.10;2.90;;;;;;;;;;5228564;28;20029;-76
2022/06/20 02:02:38;;;;;;;12.13;2.40;;;;;;;;;;5227770;28;20037;-76
2022/06/20 02:05:11;;;;;;;11.65;2.92;;;;;;;;;;5229339;28;20017;-76
2022/06/20 02:07:42;;;;;;;10.63;3.13;;;;;;;;;;5229534;28;20054;-76
2022/06/20 02:10:17;;;;;;;13.27;3.60;;;;;;;;;;5230880;28;20041;-77
2022/06/20 02:12:48;;;;;;;;;;;;;;;;;;5233634;28;20025;-76
2022/06/20 02:15:20;;;;;;;9.35;2.30;;;;;;;;;;5233256;28;19912;-76
2022/06/20 02:17:52;;;;;;;9.37;2.33;;;;;;;;;;5232901;28;20010;-76
2022/06/20 02:20:27;;;;;;;9.60;2.70;;;;;;;;;;5233513;28;20013;-76
2022/06/20 02:22:59;;;;;;;14.73;2.80;;;;;;;;;;5232445;28;20100;-79
2022/06/20 02:25:31;;;;;;;11.00;2.60;;;;;;;;;;5232756;28;20027;-76
2022/06/20 02:28:07;;;;;;;12.90;2.50;;;;;;;;;;5230962;28;20061;-76
2022/06/20 02:30:39;;;;;;;9.47;2.97;;;;;;;;;;5232052;28;20033;-77
2022/06/20 02:33:25;;;;;;;8.60;2.43;;;;;;;;;;5231118;28;20526;-76
2022/06/20 02:35:57;;;;;;;11.57;2.57;;;;;;;;;;5233040;28;20112;-76
2022/06/20 02:38:29;;;;;;;14.80;2.77;;;;;;;;;;5232176;28;20053;-77
2022/06/20 02:41:00;;;;;;;9.97;2.77;;;;;;;;;;5230731;28;20159;-77
2022/06/20 02:43:36;;;;;;;10.63;3.20;;;;;;;;;;5231685;28;20123;-77
2022/06/20 02:46:09;;;;;;;13.37;3.03;;;;;;;;;;5232843;28;20024;-76
2022/06/20 02:48:42;;;;;;;10.50;2.93;;;;;;;;;;5232780;28;20111;-77
2022/06/20 02:51:15;;;;;;;9.23;2.17;;;;;;;;;;5230950;28;20018;-76
2022/06/20 02:53:52;;;;;;;9.13;2.40;;;;;;;;;;5232200;28;20108;-76
2022/06/20 02:56:25;;;;;;;10.60;2.40;;;;;;;;;;5232113;28;20056;-76
2022/06/20 02:58:58;;;;;;;11.97;2.87;;;;;;;;;;5232401;28;20033;-76
2022/06/20 03:01:35;;;;;;;9.50;2.50;;;;;;;;;;5232637;28;20029;-76
2022/06/20 03:04:07;;;;;;;8.67;2.50;;;;;;;;;;5232546;28;20555;-77
2022/06/20 03:06:40;;;;;;;9.67;2.30;;;;;;;;;;5230844;28;20483;-76
2022/06/20 03:09:13;;;;;;;11.27;2.90;;;;;;;;;;5230873;28;20051;-76
2022/06/20 03:11:44;;;;;;;10.77;2.13;;;;;;;;;;5233216;28;20625;-77
2022/06/20 03:14:16;;;;;;;9.03;2.30;;;;;;;;;;5232109;28;20017;-77
2022/06/20 03:16:47;;;;;;;8.07;2.27;;;;;;;;;;5231053;28;20017;-77
2022/06/20 03:19:26;;;;;;;10.68;2.25;;;;;;;;;;5232049;28;20041;-76
2022/06/20 03:21:59;;;;;;;7.93;2.73;;;;;;;;;;5230845;28;20026;-76
2022/06/20 03:24:30;;;;;;;12.20;2.33;;;;;;;;;;5231568;28;20455;-76
2022/06/20 03:27:03;;;;;;;7.90;1.73;;;;;;;;;;5229896;28;20025;-76
2022/06/20 03:29:37;;;;;;;8.77;2.13;;;;;;;;;;5232213;28;20480;-77
2022/06/20 03:32:08;;;;;;;6.65;1.90;;;;;;;;;;5229295;28;20075;-77
2022/06/20 03:34:39;;;;;;;8.27;1.97;;;;;;;;;;5230963;28;20044;-77
2022/06/20 03:37:10;;;;;;;9.17;2.30;;;;;;;;;;5229499;28;20014;-77
2022/06/20 03:39:42;;;;;;;10.00;2.57;;;;;;;;;;5231485;28;20040;-76
2022/06/20 03:42:14;;;;;;;6.27;1.70;;;;;;;;;;5230746;28;20780;-77
2022/06/20 03:44:56;;;;;;;5.17;1.83;;;;;;;;;;5229482;28;20040;-77
2022/06/20 03:47:30;;;;;;;8.47;2.73;;;;;;;;;;5230159;28;20456;-76
2022/06/20 03:50:07;;;;;;;12.07;2.77;;;;;;;;;;5229451;28;20750;-76
2022/06/20 03:52:46;;;;;;;9.53;2.23;;;;;;;;;;5215891;28;20053;-76
2022/06/20 03:55:24;;;;;;;6.77;1.87;;;;;;;;;;5230477;28;20032;-76
2022/06/20 03:57:58;;;;;;;11.20;2.33;;;;;;;;;;5233679;28;20005;-77
2022/06/20 04:00:36;;;;;;;5.72;1.95;;;;;;;;;;5235044;28;20018;-76
2022/06/20 04:03:10;;;;;;;8.80;2.10;;;;;;;;;;5230677;28;20209;-76
2022/06/20 04:05:45;;;;;;;8.73;2.20;;;;;;;;;;5229011;28;20024;-77
2022/06/20 04:08:16;;;;;;;;;;;;;;;;;;5230776;28;20049;-76
2022/06/20 04:10:58;;;;;;;8.67;1.80;;;;;;;;;;5230414;28;19947;-76
2022/06/20 04:13:40;;;;;;;10.40;2.60;;;;;;;;;;5229953;28;20511;-76
2022/06/20 04:16:15;;;;;;;10.87;2.23;;;;;;;;;;5228358;28;20029;-76
2022/06/20 04:18:52;;;;;;;8.93;2.70;;;;;;;;;;5231363;28;20104;-77
2022/06/20 04:21:23;;;;;;;8.23;2.17;;;;;;;;;;5230538;28;20713;-76
2022/06/20 04:24:04;;;;;;;10.18;2.13;;;;;;;;;;5224661;28;20060;-76
2022/06/20 04:26:37;;;;;;;10.20;2.27;;;;;;;;;;5228931;28;20028;-77
2022/06/20 04:29:27;;;;;;;6.87;1.87;;;;;;;;;;5229210;28;20451;-76
2022/06/20 04:32:01;;;;;;;11.67;2.13;;;;;;;;;;5232635;28;20111;-76
2022/06/20 04:34:39;;;;;;;8.00;2.60;;;;;;;;;;5231046;28;20020;-76
2022/06/20 04:37:19;;;;;;;11.33;2.63;;;;;;;;;;5209836;28;20056;-77
2022/06/20 04:39:57;;;;;;;13.70;2.37;;;;;;;;;;5209586;28;20093;-76
2022/06/20 04:42:40;;;;;;;7.57;2.37;;;;;;;;;;5230263;28;20036;-76
2022/06/20 04:45:14;;;;;;;7.10;2.57;;;;;;;;;;5229791;28;20024;-77
2022/06/20 04:47:47;;;;;;;7.63;2.20;;;;;;;;;;5230261;28;20636;-77
2022/06/20 04:50:20;;;;;;;13.45;3.55;;;;;;;;;;5229160;28;20083;-76
2022/06/20 04:52:53;;;;;;;7.17;2.10;;;;;;;;;;5228909;28;20017;-76
2022/06/20 04:55:25;;;;;;;14.53;2.93;;;;;;;;;;5228612;28;20013;-75
2022/06/20 04:57:58;;;;;;;5.37;1.80;;;;;;;;;;5229254;28;20053;-76
2022/06/20 05:00:34;;;;;;;10.33;2.33;;;;;;;;;;5230356;28;20118;-76
2022/06/20 05:03:06;;;;;;;10.27;2.37;;;;;;;;;;5228091;28;20021;-76
2022/06/20 05:05:39;;;;;;;7.67;2.23;;;;;;;;;;5230049;28;20018;-76
2022/06/20 05:08:12;;;;;;;13.23;3.07;;;;;;;;;;5228666;28;20051;-76
2022/06/20 05:10:51;;;;;;;10.33;2.30;;;;;;;;;;5227987;28;20033;-77
2022/06/20 05:13:25;;;;;;;7.27;2.00;;;;;;;;;;5227975;28;20188;-77
2022/06/20 05:15:56;;;;;;;9.70;2.67;;;;;;;;;;5227532;28;20006;-78
2022/06/20 05:18:40;;;;;;;11.23;2.63;;;;;;;;;;5230854;28;20028;-77
2022/06/20 05:21:22;;;;;;;7.57;2.30;;;;;;;;;;5229544;28;20016;-77
2022/06/20 05:23:56;;;;;;;10.43;2.70;;;;;;;;;;5227466;28;20056;-76
2022/06/20 05:26:34;;;;;;;8.50;2.20;;;;;;;;;;5226637;28;20121;-77
2022/06/20 05:29:07;;;;;;;14.53;3.17;;;;;;;;;;5227664;28;20026;-78
2022/06/20 05:31:42;;;;;;;8.37;2.63;;;;;;;;;;5233578;28;20108;-77
2022/06/20 05:34:13;;;;;;;8.13;2.23;;;;;;;;;;5229570;28;20028;-77
2022/06/20 05:36:55;;;;;;;10.73;2.70;;;;;;;;;;5222954;28;20022;-77
2022/06/20 05:39:30;;;;;;;11.20;2.90;;;;;;;;;;5208591;28;20014;-77
2022/06/20 05:42:01;;;;;;;11.05;2.90;;;;;;;;;;5215499;28;20423;-77
2022/06/20 05:44:32;;;;;;;12.60;3.00;;;;;;;;;;5227816;28;20084;-76
2022/06/20 05:47:04;;;;;;;12.47;3.80;;;;;;;;;;5226097;28;20048;-77
2022/06/20 05:49:39;;;;;;;13.20;2.83;;;;;;;;;;5229560;28;20083;-78
2022/06/20 05:52:15;;;;;;;9.07;2.90;;;;;;;;;;5228677;28;20032;-78
2022/06/20 05:54:52;;;;;;;10.73;3.43;;;;;;;;;;5228117;28;20109;-77
2022/06/20 05:57:25;;;;;;;11.87;2.57;;;;;;;;;;5228744;28;20025;-78
2022/06/20 06:00:03;;;;;;;10.00;3.60;;;;;;;;;;5229327;28;20026;-77
2022/06/20 06:02:40;;;;;;;7.93;2.33;;;;;;;;;;5228511;28;20026;-78
2022/06/20 06:05:23;;;;;;;9.00;2.80;;;;;;;;;;5226747;28;20029;-77
2022/06/20 06:07:55;;;;;;;9.90;3.17;;;;;;;;;;5226890;28;20044;-77
2022/06/20 06:10:30;;;;;;;10.30;2.70;;;;;;;;;;5231171;28;20026;-76
2022/06/20 06:13:06;;;;;;;8.73;2.37;;;;;;;;;;5227115;28;20176;-80
2022/06/20 06:16:46;;;;;;;9.50;2.40;;;;;;;;;;5227567;28;20523;-80
2022/06/20 06:18:39;;;;;;;9.90;1.90;;;;;;;;;;5230182;28;20041;-79
2022/06/20 06:21:10;;;;;;;6.43;1.98;;;;;;;;;;5228395;28;20508;-81
2022/06/20 06:23:42;;;;;;;8.97;2.80;;;;;;;;;;5224166;28;20028;-80
2022/06/20 06:26:15;;;;;;;12.60;2.97;;;;;;;;;;5225408;28;20018;-79
2022/06/20 06:28:48;;;;;;;10.57;2.30;;;;;;;;;;5224435;28;20021;-79
2022/06/20 06:31:27;;;;;;;8.70;2.33;;;;;;;;;;5228159;28;20064;-79
2022/06/20 06:34:18;;;;;;;9.83;2.17;;;;;;;;;;5227836;28;20044;-80
2022/06/20 06:37:01;;;;;;;15.10;3.37;;;;;;;;;;5230447;28;20041;-77
2022/06/20 06:39:35;;;;;;;9.10;2.10;;;;;;;;;;5230177;28;20485;-79
2022/06/20 06:42:10;;;;;;;10.60;1.90;;;;;;;;;;5229529;28;20542;-80
2022/06/20 06:44:47;;;;;;;6.27;2.30;;;;;;;;;;5209994;28;20088;-79
2022/06/20 06:47:18;;;;;;;9.40;2.10;;;;;;;;;;5226179;28;20025;-80
2022/06/20 06:49:53;;;;;;;7.13;1.83;;;;;;;;;;5220339;28;20037;-76
2022/06/20 06:52:27;;;;;;;9.40;2.20;;;;;;;;;;5230866;28;20071;-76
2022/06/20 06:55:01;;;;;;;10.07;2.53;;;;;;;;;;5225716;28;20025;-75
2022/06/20 06:57:37;;;;;;;5.43;1.92;;;;;;;;;;5229123;28;20021;-77
2022/06/20 07:00:13;;;;;;;9.60;1.50;;;;;;;;;;5231897;28;20022;-74
2022/06/20 07:02:51;;;;;;;7.33;2.23;;;;;;;;;;5231304;28;20395;-75
2022/06/20 07:05:37;;;;;;;9.60;1.73;;;;;;;;;;5228155;28;20025;-77
2022/06/20 07:08:14;;;;;;;10.03;2.20;;;;;;;;;;5229227;28;20056;-73
2022/06/20 07:10:55;;;;;;;6.87;1.70;;;;;;;;;;5231671;28;20032;-76
2022/06/20 07:13:33;;;;;;;9.60;2.43;;;;;;;;;;5226662;28;20025;-76
2022/06/20 07:16:10;;;;;;;6.73;1.97;;;;;;;;;;5231217;28;20025;-75
2022/06/20 07:18:46;;;;;;;8.60;1.97;;;;;;;;;;5228840;28;20025;-75
2022/06/20 07:21:19;;;;;;;11.27;1.83;;;;;;;;;;5231958;28;20580;-75
2022/06/20 07:23:55;;;;;;;7.27;1.57;;;;;;;;;;5227001;28;20029;-75
2022/06/20 07:26:28;;;;;;;5.97;1.60;;;;;;;;;;5231799;28;20041;-76
2022/06/20 07:29:03;;;;;;;8.87;2.10;;;;;;;;;;5229340;28;20040;-76
2022/06/20 07:31:38;;;;;;;9.57;2.47;;;;;;;;;;5234048;28;20509;-77
2022/06/20 07:34:15;;;;;;;9.23;2.37;;;;;;;;;;5227625;28;20049;-76
2022/06/20 07:36:49;;;;;;;7.40;1.60;;;;;;;;;;5231037;28;20036;-76
2022/06/20 07:39:22;;;;;;;11.18;2.22;;;;;;;;;;5228881;28;20653;-76
2022/06/20 07:42:02;;;;;;;8.07;2.17;;;;;;;;;;5229056;28;20013;-76
2022/06/20 07:44:34;;;;;;;5.27;2.03;;;;;;;;;;5227265;28;20528;-76
2022/06/20 07:47:08;;;;;;;14.18;3.52;;;;;;;;;;5230155;28;20022;-76
2022/06/20 07:49:56;;;;;;;8.65;1.98;;;;;;;;;;5232146;28;20129;-76
2022/06/20 07:52:34;;;;;;;7.72;1.60;;;;;;;;;;5228705;28;20480;-76
2022/06/20 07:55:09;;;;;;;10.45;2.30;;;;;;;;;;5227632;28;20029;-73
2022/06/20 07:57:44;;;;;;;5.43;1.77;;;;;;;;;;5230893;28;20036;-77
2022/06/20 08:00:17;;;;;;;6.55;1.50;;;;;;;;;;5230496;28;20101;-75
2022/06/20 08:02:50;;;;;;;3.67;1.57;;;;;;;;;;5229708;28;20028;-75
2022/06/20 08:05:42;;;;;;;6.13;1.95;;;;;;;;;;5227182;28;20279;-75
2022/06/20 08:08:25;;;;;;;4.88;1.23;;;;;;;;;;5229378;28;20073;-75
2022/06/20 08:10:57;;;;;;;7.55;1.77;;;;;;;;;;5227358;28;20124;-76
2022/06/20 08:13:35;;;;;;;5.25;1.63;;;;;;;;;;5228139;28;20080;-75
2022/06/20 08:16:06;;;;;;;7.45;1.50;;;;;;;;;;5229419;28;20272;-75
2022/06/20 08:18:37;;;;;;;7.92;1.50;;;;;;;;;;5230335;28;20120;-75
2022/06/20 08:21:18;;;;;;;5.22;1.42;;;;;;;;;;5229962;28;20671;-75
2022/06/20 08:23:52;;;;;;;8.55;1.70;;;;;;;;;;5225116;28;20021;-75
2022/06/20 08:26:27;;;;;;;6.68;2.30;;;;;;;;;;5228846;28;20671;-75
2022/06/20 08:28:59;;;;;;;8.60;2.17;;;;;;;;;;5227285;28;20116;-75
2022/06/20 08:31:32;;;;;;;7.32;2.17;;;;;;;;;;5230291;28;20494;-75
2022/06/20 08:34:18;;;;;;;6.37;2.17;;;;;;;;;;5224360;28;20360;-74
2022/06/20 08:36:58;;;;;;;5.57;1.90;;;;;;;;;;5230204;28;20029;-75
2022/06/20 08:39:35;;;;;;;4.70;1.92;;;;;;;;;;5227315;28;20025;-74
2022/06/20 08:42:24;;;;;;;4.78;1.40;;;;;;;;;;5220119;28;20002;-75
2022/06/20 08:45:03;;;;;;;8.63;2.17;;;;;;;;;;5223152;28;20029;-75
2022/06/20 08:47:46;;;;;;;5.53;1.95;;;;;;;;;;5230337;28;20120;-75
2022/06/20 08:50:36;;;;;;;5.72;1.85;;;;;;;;;;5228174;28;20047;-75
2022/06/20 08:53:16;;;;;;;4.10;1.67;;;;;;;;;;5221197;28;20048;-75
2022/06/20 08:56:07;;;;;;;4.63;1.80;;;;;;;;;;5229118;28;20029;-75
2022/06/20 08:58:45;;;;;;;4.13;1.77;;;;;;;;;;5229094;28;20033;-76
2022/06/20 09:01:25;;;;;;;4.45;1.70;;;;;;;;;;5228573;28;20100;-76
2022/06/20 09:03:56;;;;;;;8.23;2.35;;;;;;;;;;5224616;28;20117;-76
2022/06/20 09:06:33;;;;;;;4.96;1.76;;;;;;;;;;5227650;28;20088;-75
2022/06/20 09:09:37;;;;;;;4.25;1.58;;;;;;;;;;5214144;28;20719;-75
2022/06/20 09:12:17;;;;;;;10.10;2.13;;;;;;;;;;5201172;28;20124;-75
2022/06/20 09:14:54;;;;;;;5.40;1.98;;;;;;;;;;5225681;28;20384;-75
2022/06/20 09:17:29;;;;;;;4.63;1.55;;;;;;;;;;5227298;28;20413;-75
2022/06/20 09:20:09;;;;;;;6.05;2.00;;;;;;;;;;5227312;28;20086;-75
2022/06/20 09:22:43;;;;;;;7.93;2.03;;;;;;;;;;5227031;28;20023;-75
2022/06/20 09:25:20;;;;;;;8.05;1.63;;;;;;;;;;5224580;28;20037;-75
2022/06/20 09:28:11;;;;;;;6.90;2.00;;;;;;;;;;5227484;28;20032;-75
2022/06/20 09:30:48;;;;;;;8.35;2.35;;;;;;;;;;5225682;28;20037;-75
2022/06/20 09:33:43;;;;;;;6.93;2.65;;;;;;;;;;5224266;28;20029;-79
2022/06/20 09:36:27;;;;;;;9.05;3.05;;;;;;;;;;5228267;28;20128;-76
2022/06/20 09:39:16;;;;;;;6.63;2.33;;;;;;;;;;5224909;28;20018;-76
2022/06/20 09:41:50;;;;;;;7.63;2.63;;;;;;;;;;5228780;28;20021;-75
2022/06/20 09:44:28;;;;;;;10.38;2.70;;;;;;;;;;5225832;28;20489;-73
2022/06/20 09:47:13;;;;;;;8.75;3.00;;;;;;;;;;5219966;28;20813;-76
2022/06/20 09:49:55;;;;;;;6.53;2.00;;;;;;;;;;5218732;28;20551;-74
2022/06/20 09:52:29;;;;;;;6.57;2.42;;;;;;;;;;5218131;28;20404;-75
2022/06/20 09:55:06;;;;;;;7.22;2.47;;;;;;;;;;5225019;28;20079;-75
2022/06/20 09:57:47;;;;;;;6.32;2.05;;;;;;;;;;5222040;28;20033;-76
2022/06/20 10:00:20;;;;;;;5.72;2.28;;;;;;;;;;5222225;28;20036;-72
2022/06/20 10:03:04;;;;;;;5.05;2.17;;;;;;;;;;5225414;28;20097;-74
2022/06/20 10:05:40;;;;;;;6.20;2.28;;;;;;;;;;5227561;28;20423;-75
2022/06/20 10:08:29;;;;;;;5.43;2.33;;;;;;;;;;5226448;28;20046;-76
2022/06/20 10:11:06;;;;;;;6.32;2.13;;;;;;;;;;5224787;28;20175;-76
2022/06/20 10:13:56;;;;;;;5.57;2.17;;;;;;;;;;5225630;28;20026;-74
2022/06/20 10:16:51;;;;;;;8.18;2.60;;;;;;;;;;5226265;28;20033;-74
2022/06/20 10:19:22;;;;;;;9.25;2.63;;;;;;;;;;5227395;28;20622;-74
2022/06/20 10:22:15;;;;;;;8.45;2.70;;;;;;;;;;5223310;28;20071;-76
2022/06/20 10:24:50;;;;;;;11.68;3.08;;;;;;;;;;5225204;28;20793;-75
2022/06/20 10:27:28;;;;;;;8.27;2.80;;;;;;;;;;5226733;28;20072;-74
2022/06/20 10:30:09;;;;;;;8.85;2.58;;;;;;;;;;5227239;28;20037;-76
2022/06/20 10:32:52;;;;;;;5.55;2.38;;;;;;;;;;5232939;28;20455;-76
2022/06/20 10:35:38;;;;;;;6.78;2.25;;;;;;;;;;5229365;28;20231;-73
2022/06/20 10:38:15;;;;;;;9.07;2.97;;;;;;;;;;5215124;28;20086;-72
2022/06/20 10:40:49;;;;;;;10.60;3.28;;;;;;;;;;5245963;28;20482;-73
2022/06/20 10:43:23;;;;;;;6.05;2.72;;;;;;;;;;5229496;28;20041;-76
2022/06/20 10:45:59;;;;;;;10.00;2.95;;;;;;;;;;5232099;28;20587;-76
2022/06/20 10:48:46;;;;;;;8.00;2.72;;;;;;;;;;5232735;28;20092;-76
2022/06/20 10:51:25;;;;;;;9.55;2.83;;;;;;;;;;5232763;28;20037;-76
2022/06/20 10:53:56;;;;;;;6.55;2.35;;;;;;;;;;5227232;28;20022;-77
2022/06/20 10:56:34;;;;;;;6.07;2.35;;;;;;;;;;5231418;28;20025;-75
2022/06/20 10:59:05;;;;;;;7.13;2.25;;;;;;;;;;5230925;28;20276;-77
2022/06/20 11:01:48;;;;;;;7.82;2.30;;;;;;;;;;5231729;28;20013;-76
2022/06/20 11:04:22;;;;;;;7.68;2.53;;;;;;;;;;5227689;28;20021;-76
2022/06/20 11:06:59;;;;;;;6.60;2.40;;;;;;;;;;5228736;28;20037;-78
2022/06/20 11:09:45;;;;;;;9.50;2.10;;;;;;;;;;5232524;28;20032;-78
2022/06/20 11:12:25;;;;;;;4.95;2.45;;;;;;;;;;5231244;28;20022;-78
2022/06/20 11:15:02;;;;;;;7.45;2.42;;;;;;;;;;5224806;28;20542;-77
2022/06/20 11:17:33;;;;;;;6.20;2.50;;;;;;;;;;5229776;28;20005;-78
2022/06/20 11:20:23;;;;;;;7.45;2.60;;;;;;;;;;5229869;28;20502;-78
2022/06/20 11:23:13;;;;;;;7.35;2.50;;;;;;;;;;5226934;28;20033;-78
2022/06/20 11:25:44;;;;;;;11.52;3.28;;;;;;;;;;5225724;28;20010;-77
2022/06/20 11:28:36;;;;;;;9.10;3.15;;;;;;;;;;5228921;28;20039;-78
2022/06/20 11:31:26;;;;;;;6.75;2.70;;;;;;;;;;5227454;28;20490;-78
2022/06/20 11:34:09;;;;;;;7.32;2.55;;;;;;;;;;5225644;28;20108;-78
2022/06/20 11:36:43;;;;;;;7.13;2.47;;;;;;;;;;5227463;28;20037;-78
2022/06/20 11:39:33;;;;;;;9.00;3.45;;;;;;;;;;5231514;28;20108;-78
2022/06/20 11:42:23;;;;;;;6.25;2.85;;;;;;;;;;5228834;28;20026;-78
2022/06/20 11:45:09;;;;;;;7.55;2.35;;;;;;;;;;5220248;28;20594;-75
2022/06/20 11:47:49;;;;;;;8.88;3.15;;;;;;;;;;5216227;28;20026;-74
2022/06/20 11:50:35;;;;;;;9.27;2.92;;;;;;;;;;5217630;28;20110;-78
2022/06/20 11:53:30;;;;;;;7.95;2.30;;;;;;;;;;5213816;28;20053;-78
2022/06/20 11:56:21;;;;;;;5.82;2.45;;;;;;;;;;5218427;28;20558;-78
2022/06/20 11:59:04;;;;;;;7.78;2.45;;;;;;;;;;5220292;28;20037;-76
2022/06/20 12:01:47;;;;;;;7.32;1.95;;;;;;;;;;5219951;28;20021;-75
2022/06/20 12:04:21;;;;;;;6.25;2.20;;;;;;;;;;5217513;28;20060;-76
2022/06/20 12:06:57;;;;;;;7.43;2.25;;;;;;;;;;5217346;28;20041;-82
2022/06/20 12:09:31;;;;;;;8.25;2.75;;;;;;;;;;5220370;28;20045;-83
2022/06/20 12:12:05;;;;;;;6.70;2.85;;;;;;;;;;5222032;28;20029;-78
2022/06/20 12:14:36;;;;;;;8.77;2.22;;;;;;;;;;5215803;28;20033;-78
2022/06/20 12:17:14;;;;;;;5.93;2.00;;;;;;;;;;5220763;28;20122;-78
2022/06/20 12:25:48;;;;;;;7.53;3.10;;;;;;;;;;5220486;28;20026;-77
2022/06/20 12:28:24;;;;;;;5.15;1.80;;;;;;;;;;5218530;28;20033;-76
2022/06/20 12:31:00;;;;;;;6.95;2.33;;;;;;;;;;5219586;28;20038;-75
2022/06/20 12:33:32;;;;;;;7.30;2.05;;;;;;;;;;5216003;28;20033;-76
2022/06/20 12:36:06;;;;;;;8.45;2.67;;;;;;;;;;5220318;28;20116;-81
2022/06/20 12:38:46;;;;;;;6.72;2.50;;;;;;;;;;5217417;28;20033;-82
2022/06/20 12:41:19;;;;;;;10.27;3.35;;;;;;;;;;5223553;28;20112;-77
2022/06/20 12:43:50;;;;;;;7.22;2.42;;;;;;;;;;5215677;28;20025;-77
2022/06/20 12:46:28;;;;;;;6.20;2.25;;;;;;;;;;5219674;28;20049;-75
2022/06/20 12:49:07;;;;;;;5.03;2.28;;;;;;;;;;5218431;28;20088;-74
2022/06/20 12:51:48;;;;;;;7.03;2.33;;;;;;;;;;5218596;28;20037;-74
2022/06/20 12:54:37;;;;;;;11.48;2.58;;;;;;;;;;5215319;28;20682;-75
2022/06/20 12:57:16;;;;;;;5.47;2.08;;;;;;;;;;5219309;28;20533;-78
2022/06/20 12:59:50;;;;;;;7.13;1.98;;;;;;;;;;5219355;28;20024;-77
2022/06/20 13:02:28;;;;;;;8.07;2.45;;;;;;;;;;5220547;28;20132;-75
2022/06/20 13:05:20;;;;;;;7.07;2.00;;;;;;;;;;5229640;28;20554;-75
2022/06/20 13:07:51;;;;;;;7.38;2.25;;;;;;;;;;5219877;28;20076;-78
2022/06/20 13:10:35;;;;;;;3.80;1.80;;;;;;;;;;5219151;28;20057;-75
2022/06/20 13:13:38;;;;;;;9.00;2.35;;;;;;;;;;5217851;28;20276;-79
2022/06/20 13:16:16;;;;;;;7.07;1.95;;;;;;;;;;5174423;28;20048;-74
2022/06/20 13:19:01;;;;;;;9.75;2.92;;;;;;;;;;5215930;28;20176;-78
2022/06/20 13:21:50;;;;;;;9.82;2.45;;;;;;;;;;5215053;28;20500;-77
2022/06/20 13:24:28;;;;;;;8.18;2.72;;;;;;;;;;5217768;28;20020;-79
2022/06/20 13:27:13;;;;;;;6.20;2.20;;;;;;;;;;5217030;28;20049;-77
2022/06/20 13:29:49;;;;;;;5.32;2.78;;;;;;;;;;5217068;28;20563;-79
2022/06/20 13:32:24;;;;;;;4.18;1.95;;;;;;;;;;5216231;28;20100;-77
2022/06/20 13:34:55;;;;;;;8.75;2.67;;;;;;;;;;5218080;28;20031;-77
2022/06/20 13:37:30;;;;;;;8.20;2.38;;;;;;;;;;5219573;28;20034;-75
2022/06/20 13:40:11;;;;;;;7.90;2.08;;;;;;;;;;5218034;28;20052;-75
2022/06/20 13:42:48;;;;;;;7.47;2.30;;;;;;;;;;5215979;28;20036;-75
2022/06/20 13:45:22;;;;;;;8.60;2.53;;;;;;;;;;5219172;28;20081;-79
2022/06/20 13:48:00;;;;;;;10.75;2.53;;;;;;;;;;5218150;28;20072;-78
2022/06/20 13:50:40;;;;;;;7.38;2.38;;;;;;;;;;5218991;28;20499;-78
2022/06/20 13:53:18;;;;;;;7.95;2.20;;;;;;;;;;5217087;28;20045;-75
2022/06/20 13:55:52;;;;;;;7.13;2.60;;;;;;;;;;5216854;28;20022;-74
2022/06/20 13:58:33;;;;;;;10.70;2.75;;;;;;;;;;5217538;28;21099;-78
2022/06/20 14:01:07;;;;;;;7.28;2.00;;;;;;;;;;5218955;28;20032;-71
2022/06/20 14:03:47;;;;;;;7.95;2.00;;;;;;;;;;5216574;28;20366;-76
2022/06/20 14:06:42;;;;;;;7.22;1.80;;;;;;;;;;5219951;28;21419;-71
2022/06/20 14:09:15;;;;;;;6.63;1.83;;;;;;;;;;5214087;28;20050;-72
2022/06/20 14:11:58;;;;;;;7.28;2.53;;;;;;;;;;5221234;28;20033;-85
2022/06/20 14:14:44;;;;;;;7.90;2.15;;;;;;;;;;5225336;28;20025;-81
2022/06/20 14:17:18;;;;;;;10.43;2.70;;;;;;;;;;5221943;28;20053;-76
2022/06/20 14:19:55;;;;;;;10.52;2.88;;;;;;;;;;5223661;28;20033;-78
2022/06/20 14:22:34;;;;;;;9.50;2.80;;;;;;;;;;5221033;28;20025;-77
2022/06/20 14:25:24;;;;;;;7.15;2.25;;;;;;;;;;5224112;28;20030;-86
2022/06/20 14:27:55;;;;;;;6.43;2.20;;;;;;;;;;5223059;28;20029;-79
2022/06/20 14:30:30;;;;;;;7.72;2.28;;;;;;;;;;5222548;28;20709;-84
2022/06/20 14:33:21;;;;;;;9.73;2.78;;;;;;;;;;5221759;28;20924;-81
2022/06/20 14:36:05;;;;;;;7.68;2.33;;;;;;;;;;5223489;28;20021;-75
2022/06/20 14:38:40;;;;;;;7.30;2.78;;;;;;;;;;5219256;28;20009;-75
2022/06/20 14:44:15;;;;;;;10.25;2.50;;;;;;;;;;5221494;28;20667;-74
2022/06/20 14:46:58;;;;;;;8.15;2.45;;;;;;;;;;5223856;28;20024;-83
2022/06/20 14:49:48;;;;;;;7.72;2.25;;;;;;;;;;5220699;28;20041;-73
2022/06/20 14:52:22;;;;;;;10.40;4.07;;;;;;;;;;5218267;28;20044;-77
2022/06/20 14:54:57;;;;;;;9.82;3.28;;;;;;;;;;5222720;28;20020;-78
2022/06/20 14:57:35;;;;;;;8.90;2.47;;;;;;;;;;5222063;28;20029;-79
2022/06/20 15:00:16;;;;;;;8.70;2.78;;;;;;;;;;5223082;28;20156;-79
2022/06/20 15:02:55;;;;;;;13.55;4.13;;;;;;;;;;5221698;28;20345;-79
2022/06/20 15:05:27;;;;;;;9.23;2.78;;;;;;;;;;5222080;28;20400;-79
2022/06/20 15:08:01;;;;;;;6.80;2.55;;;;;;;;;;5217623;28;20048;-83
2022/06/20 15:10:38;;;;;;;8.75;2.67;;;;;;;;;;5220955;28;20469;-87
2022/06/20 15:13:25;;;;;;;6.97;2.00;;;;;;;;;;5220893;28;20565;-81
2022/06/20 15:16:00;;;;;;;10.00;2.40;;;;;;;;;;5220577;28;20443;-82
2022/06/20 15:18:38;;;;;;;8.80;2.38;;;;;;;;;;5220289;28;20021;-75
2022/06/20 15:21:28;;;;;;;14.88;2.83;;;;;;;;;;5217744;28;20179;-75
2022/06/20 15:24:02;;;;;;;9.90;3.20;;;;;;;;;;5217974;28;20021;-80
2022/06/20 15:26:36;;;;;;;10.45;3.22;;;;;;;;;;5221145;28;20038;-76
2022/06/20 15:29:16;;;;;;;8.73;2.42;;;;;;;;;;5220350;28;20068;-78
2022/06/20 15:31:55;;;;;;;7.03;2.42;;;;;;;;;;5221245;28;20067;-74
2022/06/20 15:34:31;;;;;;;6.75;2.28;;;;;;;;;;5221960;28;20147;-76
2022/06/20 15:37:05;;;;;;;7.80;2.40;;;;;;;;;;5218109;28;20697;-74
2022/06/20 15:39:41;;;;;;;7.63;2.42;;;;;;;;;;5222067;28;20040;-77
2022/06/20 15:42:21;;;;;;;13.20;2.90;;;;;;;;;;5222220;28;20033;-77
2022/06/20 15:44:58;;;;;;;6.30;2.28;;;;;;;;;;5225483;28;20114;-75
2022/06/20 15:47:42;;;;;;;8.27;2.53;;;;;;;;;;5223448;28;20028;-73
2022/06/20 15:50:13;;;;;;;;;;;;;;;;;;5224004;28;20446;-82
2022/06/20 15:52:53;;;;;;;12.50;4.15;;;;;;;;;;5221103;28;19932;-74
2022/06/20 15:55:28;;;;;;;9.10;3.10;;;;;;;;;;5221639;28;20311;-76